sensor_id;sensor_type;location;lat;lon;timestamp;temperature;humidity
45807;DHT22;31507;51.494;7.518;2024-01-27T00:00:24;2.80;99.90
45807;DHT22;31507;51.494;7.518;2024-01-27T00:02:49;2.80;99.90
45807;DHT22;31507;51.494;7.518;2024-01-27T00:05:15;2.80;99.90
45807;DHT22;31507;51.494;7.518;2024-01-27T00:07:40;2.80;99.90
45807;DHT22;31507;51.494;7.518;2024-01-27T00:10:06;2.80;99.90
45807;DHT22;31507;51.494;7.518;2024-01-27T00:12:32;2.80;99.90
45807;DHT22;31507;51.494;7.518;2024-01-27T00:14:57;2.80;99.90
45807;DHT22;31507;51.494;7.518;2024-01-27T00:17:23;2.80;99.90
45807;DHT22;31507;51.494;7.518;2024-01-27T00:19:50;2.70;99.90
45807;DHT22;31507;51.494;7.518;2024-01-27T00:22:16;2.70;99.90
45807;DHT22;31507;51.494;7.518;2024-01-27T00:24:46;2.70;99.90
45807;DHT22;31507;51.494;7.518;2024-01-27T00:27:12;2.80;99.90
45807;DHT22;31507;51.494;7.518;2024-01-27T00:29:37;2.70;99.90
45807;DHT22;31507;51.494;7.518;2024-01-27T00:32:03;2.70;99.90
45807;DHT22;31507;51.494;7.518;2024-01-27T00:34:28;2.70;99.90
45807;DHT22;31507;51.494;7.518;2024-01-27T00:36:54;2.60;99.90
45807;DHT22;31507;51.494;7.518;2024-01-27T00:39:19;2.70;99.90
45807;DHT22;31507;51.494;7.518;2024-01-27T00:41:45;2.70;99.90
45807;DHT22;31507;51.494;7.518;2024-01-27T00:44:10;2.60;99.90
45807;DHT22;31507;51.494;7.518;2024-01-27T00:46:36;2.50;99.90
45807;DHT22;31507;51.494;7.518;2024-01-27T00:49:02;2.60;99.90
45807;DHT22;31507;51.494;7.518;2024-01-27T00:51:28;2.60;99.90
45807;DHT22;31507;51.494;7.518;2024-01-27T00:53:53;2.60;99.90
45807;DHT22;31507;51.494;7.518;2024-01-27T00:56:19;2.60;99.90
45807;DHT22;31507;51.494;7.518;2024-01-27T00:58:44;2.60;99.90
45807;DHT22;31507;51.494;7.518;2024-01-27T01:01:12;2.60;99.90
45807;DHT22;31507;51.494;7.518;2024-01-27T01:03:37;2.60;99.90
45807;DHT22;31507;51.494;7.518;2024-01-27T01:06:03;2.60;99.90
45807;DHT22;31507;51.494;7.518;2024-01-27T01:08:28;2.60;99.90
45807;DHT22;31507;51.494;7.518;2024-01-27T01:10:54;2.60;99.90
45807;DHT22;31507;51.494;7.518;2024-01-27T01:13:20;2.50;99.90
45807;DHT22;31507;51.494;7.518;2024-01-27T01:15:45;2.50;99.90
45807;DHT22;31507;51.494;7.518;2024-01-27T01:18:11;2.50;99.90
45807;DHT22;31507;51.494;7.518;2024-01-27T01:20:37;2.50;99.90
45807;DHT22;31507;51.494;7.518;2024-01-27T01:23:02;2.40;99.90
45807;DHT22;31507;51.494;7.518;2024-01-27T01:25:28;2.40;99.90
45807;DHT22;31507;51.494;7.518;2024-01-27T01:27:53;2.40;99.90
45807;DHT22;31507;51.494;7.518;2024-01-27T01:30:19;2.40;99.90
45807;DHT22;31507;51.494;7.518;2024-01-27T01:32:44;2.40;99.90
45807;DHT22;31507;51.494;7.518;2024-01-27T01:35:10;2.40;99.90
45807;DHT22;31507;51.494;7.518;2024-01-27T01:37:35;2.50;99.90
45807;DHT22;31507;51.494;7.518;2024-01-27T01:40:01;2.40;99.90
45807;DHT22;31507;51.494;7.518;2024-01-27T01:42:28;2.40;99.90
45807;DHT22;31507;51.494;7.518;2024-01-27T01:44:54;2.30;99.90
45807;DHT22;31507;51.494;7.518;2024-01-27T01:47:20;2.30;99.90
45807;DHT22;31507;51.494;7.518;2024-01-27T01:49:47;2.20;99.90
45807;DHT22;31507;51.494;7.518;2024-01-27T01:52:13;2.20;99.90
45807;DHT22;31507;51.494;7.518;2024-01-27T01:54:48;2.20;99.90
45807;DHT22;31507;51.494;7.518;2024-01-27T01:57:14;2.10;99.90
45807;DHT22;31507;51.494;7.518;2024-01-27T01:59:39;2.10;99.90
45807;DHT22;31507;51.494;7.518;2024-01-27T02:02:06;2.10;99.90
45807;DHT22;31507;51.494;7.518;2024-01-27T02:04:41;2.00;99.90
45807;DHT22;31507;51.494;7.518;2024-01-27T02:07:07;2.00;99.90
45807;DHT22;31507;51.494;7.518;2024-01-27T02:09:33;1.90;99.90
45807;DHT22;31507;51.494;7.518;2024-01-27T02:11:58;1.90;99.90
45807;DHT22;31507;51.494;7.518;2024-01-27T02:14:24;1.80;99.90
45807;DHT22;31507;51.494;7.518;2024-01-27T02:16:51;1.80;99.90
45807;DHT22;31507;51.494;7.518;2024-01-27T02:19:17;1.80;99.90
45807;DHT22;31507;51.494;7.518;2024-01-27T02:21:42;1.90;99.90
45807;DHT22;31507;51.494;7.518;2024-01-27T02:24:08;1.80;99.90
45807;DHT22;31507;51.494;7.518;2024-01-27T02:26:34;1.80;99.90
45807;DHT22;31507;51.494;7.518;2024-01-27T02:29:00;1.70;99.90
45807;DHT22;31507;51.494;7.518;2024-01-27T02:31:25;1.70;99.90
45807;DHT22;31507;51.494;7.518;2024-01-27T02:33:51;1.70;99.90
45807;DHT22;31507;51.494;7.518;2024-01-27T02:36:16;1.80;99.90
45807;DHT22;31507;51.494;7.518;2024-01-27T02:38:42;1.80;99.90
45807;DHT22;31507;51.494;7.518;2024-01-27T02:41:09;1.90;99.90
45807;DHT22;31507;51.494;7.518;2024-01-27T02:43:34;1.90;99.90
45807;DHT22;31507;51.494;7.518;2024-01-27T02:46:00;1.90;99.90
45807;DHT22;31507;51.494;7.518;2024-01-27T02:48:25;1.90;99.90
45807;DHT22;31507;51.494;7.518;2024-01-27T02:50:51;1.90;99.90
45807;DHT22;31507;51.494;7.518;2024-01-27T02:53:16;1.90;99.90
45807;DHT22;31507;51.494;7.518;2024-01-27T02:55:42;1.90;99.90
45807;DHT22;31507;51.494;7.518;2024-01-27T02:58:07;1.90;99.90
45807;DHT22;31507;51.494;7.518;2024-01-27T03:00:33;1.90;99.90
45807;DHT22;31507;51.494;7.518;2024-01-27T03:02:58;1.90;99.90
45807;DHT22;31507;51.494;7.518;2024-01-27T03:05:24;1.90;99.90
45807;DHT22;31507;51.494;7.518;2024-01-27T03:07:49;1.90;99.90
45807;DHT22;31507;51.494;7.518;2024-01-27T03:10:15;1.90;99.90
45807;DHT22;31507;51.494;7.518;2024-01-27T03:12:40;1.90;99.90
45807;DHT22;31507;51.494;7.518;2024-01-27T03:15:06;1.90;99.90
45807;DHT22;31507;51.494;7.518;2024-01-27T03:17:31;1.90;99.90
45807;DHT22;31507;51.494;7.518;2024-01-27T03:19:57;1.80;99.90
45807;DHT22;31507;51.494;7.518;2024-01-27T03:22:22;1.80;99.90
45807;DHT22;31507;51.494;7.518;2024-01-27T03:24:48;1.80;99.90
45807;DHT22;31507;51.494;7.518;2024-01-27T03:27:13;1.90;99.90
45807;DHT22;31507;51.494;7.518;2024-01-27T03:29:39;1.80;99.90
45807;DHT22;31507;51.494;7.518;2024-01-27T03:32:04;1.90;99.90
45807;DHT22;31507;51.494;7.518;2024-01-27T03:34:33;2.00;99.90
45807;DHT22;31507;51.494;7.518;2024-01-27T03:36:59;1.90;99.90
45807;DHT22;31507;51.494;7.518;2024-01-27T03:39:25;1.90;99.90
45807;DHT22;31507;51.494;7.518;2024-01-27T03:41:50;1.90;99.90
45807;DHT22;31507;51.494;7.518;2024-01-27T03:44:16;1.90;99.90
45807;DHT22;31507;51.494;7.518;2024-01-27T03:46:41;1.90;99.90
45807;DHT22;31507;51.494;7.518;2024-01-27T03:49:07;2.00;99.90
45807;DHT22;31507;51.494;7.518;2024-01-27T03:51:32;2.00;99.90
45807;DHT22;31507;51.494;7.518;2024-01-27T03:53:58;2.00;99.90
45807;DHT22;31507;51.494;7.518;2024-01-27T03:56:23;2.00;99.90
45807;DHT22;31507;51.494;7.518;2024-01-27T03:58:48;2.00;99.90
45807;DHT22;31507;51.494;7.518;2024-01-27T04:01:14;2.00;99.90
45807;DHT22;31507;51.494;7.518;2024-01-27T04:03:40;2.00;99.90
45807;DHT22;31507;51.494;7.518;2024-01-27T04:06:05;2.10;99.90
45807;DHT22;31507;51.494;7.518;2024-01-27T04:08:31;2.10;99.90
45807;DHT22;31507;51.494;7.518;2024-01-27T04:10:56;2.20;99.90
45807;DHT22;31507;51.494;7.518;2024-01-27T04:13:22;2.10;99.90
45807;DHT22;31507;51.494;7.518;2024-01-27T04:15:47;2.10;99.90
45807;DHT22;31507;51.494;7.518;2024-01-27T04:18:13;2.00;99.90
45807;DHT22;31507;51.494;7.518;2024-01-27T04:20:39;2.00;99.90
45807;DHT22;31507;51.494;7.518;2024-01-27T04:23:04;2.10;99.90
45807;DHT22;31507;51.494;7.518;2024-01-27T04:25:30;2.10;99.90
45807;DHT22;31507;51.494;7.518;2024-01-27T04:27:55;2.00;99.90
45807;DHT22;31507;51.494;7.518;2024-01-27T04:30:21;2.00;99.90
45807;DHT22;31507;51.494;7.518;2024-01-27T04:32:46;2.00;99.90
45807;DHT22;31507;51.494;7.518;2024-01-27T04:35:14;2.00;99.90
45807;DHT22;31507;51.494;7.518;2024-01-27T04:37:39;2.00;99.90
45807;DHT22;31507;51.494;7.518;2024-01-27T04:40:05;2.00;99.90
45807;DHT22;31507;51.494;7.518;2024-01-27T04:42:34;2.00;99.90
45807;DHT22;31507;51.494;7.518;2024-01-27T04:45:00;2.00;99.90
45807;DHT22;31507;51.494;7.518;2024-01-27T04:47:25;1.90;99.90
45807;DHT22;31507;51.494;7.518;2024-01-27T04:49:51;1.90;99.90
45807;DHT22;31507;51.494;7.518;2024-01-27T04:52:16;1.90;99.90
45807;DHT22;31507;51.494;7.518;2024-01-27T04:54:42;1.90;99.90
45807;DHT22;31507;51.494;7.518;2024-01-27T04:57:07;1.90;99.90
45807;DHT22;31507;51.494;7.518;2024-01-27T04:59:33;1.90;99.90
45807;DHT22;31507;51.494;7.518;2024-01-27T05:01:59;2.00;99.90
45807;DHT22;31507;51.494;7.518;2024-01-27T05:04:24;2.00;99.90
45807;DHT22;31507;51.494;7.518;2024-01-27T05:06:52;2.00;99.90
45807;DHT22;31507;51.494;7.518;2024-01-27T05:09:17;2.00;99.90
45807;DHT22;31507;51.494;7.518;2024-01-27T05:11:43;2.00;99.90
45807;DHT22;31507;51.494;7.518;2024-01-27T05:14:11;2.00;99.90
45807;DHT22;31507;51.494;7.518;2024-01-27T05:16:36;1.90;99.90
45807;DHT22;31507;51.494;7.518;2024-01-27T05:19:02;1.90;99.90
45807;DHT22;31507;51.494;7.518;2024-01-27T05:21:28;1.90;99.90
45807;DHT22;31507;51.494;7.518;2024-01-27T05:23:53;1.90;99.90
45807;DHT22;31507;51.494;7.518;2024-01-27T05:26:20;1.90;99.90
45807;DHT22;31507;51.494;7.518;2024-01-27T05:28:45;2.00;99.90
45807;DHT22;31507;51.494;7.518;2024-01-27T05:31:11;2.00;99.90
45807;DHT22;31507;51.494;7.518;2024-01-27T05:33:37;1.90;99.90
45807;DHT22;31507;51.494;7.518;2024-01-27T05:36:03;1.90;99.90
45807;DHT22;31507;51.494;7.518;2024-01-27T05:38:29;1.80;99.90
45807;DHT22;31507;51.494;7.518;2024-01-27T05:40:56;1.80;99.90
45807;DHT22;31507;51.494;7.518;2024-01-27T05:43:21;1.70;99.90
45807;DHT22;31507;51.494;7.518;2024-01-27T05:45:48;1.70;99.90
45807;DHT22;31507;51.494;7.518;2024-01-27T05:48:14;1.60;99.90
45807;DHT22;31507;51.494;7.518;2024-01-27T05:50:42;1.60;99.90
45807;DHT22;31507;51.494;7.518;2024-01-27T05:53:07;1.60;99.90
45807;DHT22;31507;51.494;7.518;2024-01-27T05:55:33;1.60;99.90
45807;DHT22;31507;51.494;7.518;2024-01-27T05:57:59;1.60;99.90
45807;DHT22;31507;51.494;7.518;2024-01-27T06:00:24;1.60;99.90
45807;DHT22;31507;51.494;7.518;2024-01-27T06:02:50;1.60;99.90
45807;DHT22;31507;51.494;7.518;2024-01-27T06:05:15;1.60;99.90
45807;DHT22;31507;51.494;7.518;2024-01-27T06:07:41;1.50;99.90
45807;DHT22;31507;51.494;7.518;2024-01-27T06:10:08;1.50;99.90
45807;DHT22;31507;51.494;7.518;2024-01-27T06:12:34;1.40;99.90
45807;DHT22;31507;51.494;7.518;2024-01-27T06:15:00;1.40;99.90
45807;DHT22;31507;51.494;7.518;2024-01-27T06:17:25;1.30;99.90
45807;DHT22;31507;51.494;7.518;2024-01-27T06:19:51;1.30;99.90
45807;DHT22;31507;51.494;7.518;2024-01-27T06:22:16;1.40;99.90
45807;DHT22;31507;51.494;7.518;2024-01-27T06:24:45;1.40;99.90
45807;DHT22;31507;51.494;7.518;2024-01-27T06:27:10;1.40;99.90
45807;DHT22;31507;51.494;7.518;2024-01-27T06:29:36;1.50;99.90
45807;DHT22;31507;51.494;7.518;2024-01-27T06:32:02;1.40;99.90
45807;DHT22;31507;51.494;7.518;2024-01-27T06:34:27;1.50;99.90
45807;DHT22;31507;51.494;7.518;2024-01-27T06:36:53;1.40;99.90
45807;DHT22;31507;51.494;7.518;2024-01-27T06:39:18;1.30;99.90
45807;DHT22;31507;51.494;7.518;2024-01-27T06:41:44;1.30;99.90
45807;DHT22;31507;51.494;7.518;2024-01-27T06:44:09;1.30;99.90
45807;DHT22;31507;51.494;7.518;2024-01-27T06:46:35;1.40;99.90
45807;DHT22;31507;51.494;7.518;2024-01-27T06:49:00;1.40;99.90
45807;DHT22;31507;51.494;7.518;2024-01-27T06:51:27;1.30;99.90
45807;DHT22;31507;51.494;7.518;2024-01-27T06:53:52;1.30;99.90
45807;DHT22;31507;51.494;7.518;2024-01-27T06:56:18;1.30;99.90
45807;DHT22;31507;51.494;7.518;2024-01-27T06:58:44;1.20;99.90
45807;DHT22;31507;51.494;7.518;2024-01-27T07:01:09;1.20;99.90
45807;DHT22;31507;51.494;7.518;2024-01-27T07:03:34;1.20;99.90
45807;DHT22;31507;51.494;7.518;2024-01-27T07:06:00;1.10;99.90
45807;DHT22;31507;51.494;7.518;2024-01-27T07:08:28;1.10;99.90
45807;DHT22;31507;51.494;7.518;2024-01-27T07:10:54;1.10;99.90
45807;DHT22;31507;51.494;7.518;2024-01-27T07:13:20;1.20;99.90
45807;DHT22;31507;51.494;7.518;2024-01-27T07:15:46;1.30;99.90
45807;DHT22;31507;51.494;7.518;2024-01-27T07:18:11;1.30;99.90
45807;DHT22;31507;51.494;7.518;2024-01-27T07:20:37;1.40;99.90
45807;DHT22;31507;51.494;7.518;2024-01-27T07:23:02;1.40;99.90
45807;DHT22;31507;51.494;7.518;2024-01-27T07:25:28;1.50;99.90
45807;DHT22;31507;51.494;7.518;2024-01-27T07:27:54;1.50;99.90
45807;DHT22;31507;51.494;7.518;2024-01-27T07:30:20;1.50;99.90
45807;DHT22;31507;51.494;7.518;2024-01-27T07:32:46;1.60;99.90
45807;DHT22;31507;51.494;7.518;2024-01-27T07:35:11;1.60;99.90
45807;DHT22;31507;51.494;7.518;2024-01-27T07:37:37;1.60;99.90
45807;DHT22;31507;51.494;7.518;2024-01-27T07:40:02;1.70;99.90
45807;DHT22;31507;51.494;7.518;2024-01-27T07:42:28;1.70;99.90
45807;DHT22;31507;51.494;7.518;2024-01-27T07:44:53;1.70;99.90
45807;DHT22;31507;51.494;7.518;2024-01-27T07:47:19;1.70;99.90
45807;DHT22;31507;51.494;7.518;2024-01-27T07:49:44;1.70;99.90
45807;DHT22;31507;51.494;7.518;2024-01-27T07:52:10;1.70;99.90
45807;DHT22;31507;51.494;7.518;2024-01-27T07:54:35;1.70;99.90
45807;DHT22;31507;51.494;7.518;2024-01-27T07:57:05;1.80;99.90
45807;DHT22;31507;51.494;7.518;2024-01-27T07:59:31;1.80;99.90
45807;DHT22;31507;51.494;7.518;2024-01-27T08:01:56;1.80;99.90
45807;DHT22;31507;51.494;7.518;2024-01-27T08:04:22;1.90;99.90
45807;DHT22;31507;51.494;7.518;2024-01-27T08:06:49;2.00;99.90
45807;DHT22;31507;51.494;7.518;2024-01-27T08:09:15;2.10;99.90
45807;DHT22;31507;51.494;7.518;2024-01-27T08:11:41;2.20;99.90
45807;DHT22;31507;51.494;7.518;2024-01-27T08:14:07;2.30;99.90
45807;DHT22;31507;51.494;7.518;2024-01-27T08:16:32;2.40;99.90
45807;DHT22;31507;51.494;7.518;2024-01-27T08:18:58;2.40;99.90
45807;DHT22;31507;51.494;7.518;2024-01-27T08:21:23;2.50;99.90
45807;DHT22;31507;51.494;7.518;2024-01-27T08:23:49;2.50;99.90
45807;DHT22;31507;51.494;7.518;2024-01-27T08:26:14;2.60;99.90
45807;DHT22;31507;51.494;7.518;2024-01-27T08:28:40;2.60;99.90
45807;DHT22;31507;51.494;7.518;2024-01-27T08:31:05;2.70;99.90
45807;DHT22;31507;51.494;7.518;2024-01-27T08:33:31;2.80;99.90
45807;DHT22;31507;51.494;7.518;2024-01-27T08:35:57;2.90;99.90
45807;DHT22;31507;51.494;7.518;2024-01-27T08:38:22;2.90;99.90
45807;DHT22;31507;51.494;7.518;2024-01-27T08:40:50;3.00;99.90
45807;DHT22;31507;51.494;7.518;2024-01-27T08:43:16;3.00;99.90
45807;DHT22;31507;51.494;7.518;2024-01-27T08:45:41;3.10;99.90
45807;DHT22;31507;51.494;7.518;2024-01-27T08:48:07;3.20;99.90
45807;DHT22;31507;51.494;7.518;2024-01-27T08:50:33;3.30;99.90
45807;DHT22;31507;51.494;7.518;2024-01-27T08:52:58;3.30;99.90
45807;DHT22;31507;51.494;7.518;2024-01-27T08:55:24;3.50;99.90
45807;DHT22;31507;51.494;7.518;2024-01-27T08:57:50;3.60;99.90
45807;DHT22;31507;51.494;7.518;2024-01-27T09:00:15;3.60;99.90
45807;DHT22;31507;51.494;7.518;2024-01-27T09:02:44;3.70;99.90
45807;DHT22;31507;51.494;7.518;2024-01-27T09:05:10;3.90;99.90
45807;DHT22;31507;51.494;7.518;2024-01-27T09:07:35;4.10;99.90
45807;DHT22;31507;51.494;7.518;2024-01-27T09:10:01;4.30;99.90
45807;DHT22;31507;51.494;7.518;2024-01-27T09:12:27;4.50;99.90
45807;DHT22;31507;51.494;7.518;2024-01-27T09:14:52;4.60;99.90
45807;DHT22;31507;51.494;7.518;2024-01-27T09:17:19;4.80;99.90
45807;DHT22;31507;51.494;7.518;2024-01-27T09:19:45;4.80;99.90
45807;DHT22;31507;51.494;7.518;2024-01-27T09:22:10;5.00;99.90
45807;DHT22;31507;51.494;7.518;2024-01-27T09:24:36;5.10;99.90
45807;DHT22;31507;51.494;7.518;2024-01-27T09:27:01;5.10;99.90
45807;DHT22;31507;51.494;7.518;2024-01-27T09:29:27;5.20;99.90
45807;DHT22;31507;51.494;7.518;2024-01-27T09:31:52;5.30;99.90
45807;DHT22;31507;51.494;7.518;2024-01-27T09:34:18;5.30;99.90
45807;DHT22;31507;51.494;7.518;2024-01-27T09:36:43;5.30;99.90
45807;DHT22;31507;51.494;7.518;2024-01-27T09:39:09;5.50;99.90
45807;DHT22;31507;51.494;7.518;2024-01-27T09:41:34;5.70;99.90
45807;DHT22;31507;51.494;7.518;2024-01-27T09:44:00;6.00;99.90
45807;DHT22;31507;51.494;7.518;2024-01-27T09:46:28;6.10;96.90
45807;DHT22;31507;51.494;7.518;2024-01-27T09:48:53;6.30;99.90
45807;DHT22;31507;51.494;7.518;2024-01-27T09:51:19;6.50;96.40
45807;DHT22;31507;51.494;7.518;2024-01-27T09:53:45;6.50;80.30
45807;DHT22;31507;51.494;7.518;2024-01-27T09:56:10;6.60;77.00
45807;DHT22;31507;51.494;7.518;2024-01-27T09:58:37;6.70;84.00
45807;DHT22;31507;51.494;7.518;2024-01-27T10:01:03;6.80;57.50
45807;DHT22;31507;51.494;7.518;2024-01-27T10:03:29;7.00;51.60
45807;DHT22;31507;51.494;7.518;2024-01-27T10:05:55;7.20;40.50
45807;DHT22;31507;51.494;7.518;2024-01-27T10:08:21;7.30;51.00
45807;DHT22;31507;51.494;7.518;2024-01-27T10:10:47;7.40;49.30
45807;DHT22;31507;51.494;7.518;2024-01-27T10:13:14;7.50;30.80
45807;DHT22;31507;51.494;7.518;2024-01-27T10:15:42;7.30;42.40
45807;DHT22;31507;51.494;7.518;2024-01-27T10:18:08;7.30;39.90
45807;DHT22;31507;51.494;7.518;2024-01-27T10:20:34;7.60;29.60
45807;DHT22;31507;51.494;7.518;2024-01-27T10:23:09;7.70;19.60
45807;DHT22;31507;51.494;7.518;2024-01-27T10:25:38;7.80;33.10
45807;DHT22;31507;51.494;7.518;2024-01-27T10:28:07;8.10;31.60
45807;DHT22;31507;51.494;7.518;2024-01-27T10:30:38;8.20;42.90
45807;DHT22;31507;51.494;7.518;2024-01-27T10:33:04;8.10;45.10
45807;DHT22;31507;51.494;7.518;2024-01-27T10:35:30;8.10;28.00
45807;DHT22;31507;51.494;7.518;2024-01-27T10:37:55;7.90;30.10
45807;DHT22;31507;51.494;7.518;2024-01-27T10:40:21;7.70;24.80
45807;DHT22;31507;51.494;7.518;2024-01-27T10:43:02;7.50;37.60
45807;DHT22;31507;51.494;7.518;2024-01-27T10:47:59;7.70;66.10
45807;DHT22;31507;51.494;7.518;2024-01-27T10:50:25;7.90;23.20
45807;DHT22;31507;51.494;7.518;2024-01-27T10:52:51;8.10;14.10
45807;DHT22;31507;51.494;7.518;2024-01-27T10:55:18;8.50;25.00
45807;DHT22;31507;51.494;7.518;2024-01-27T10:57:44;9.00;5.30
45807;DHT22;31507;51.494;7.518;2024-01-27T11:00:11;9.40;1.00
45807;DHT22;31507;51.494;7.518;2024-01-27T11:02:37;9.50;1.20
45807;DHT22;31507;51.494;7.518;2024-01-27T11:05:04;9.50;16.40
45807;DHT22;31507;51.494;7.518;2024-01-27T11:07:30;9.50;23.40
45807;DHT22;31507;51.494;7.518;2024-01-27T11:09:57;9.50;1.00
45807;DHT22;31507;51.494;7.518;2024-01-27T11:12:22;9.40;9.00
45807;DHT22;31507;51.494;7.518;2024-01-27T11:14:48;9.60;17.50
45807;DHT22;31507;51.494;7.518;2024-01-27T11:17:14;9.70;1.00
45807;DHT22;31507;51.494;7.518;2024-01-27T11:19:40;9.80;3.70
45807;DHT22;31507;51.494;7.518;2024-01-27T11:22:06;9.90;1.00
45807;DHT22;31507;51.494;7.518;2024-01-27T11:24:32;10.20;6.30
45807;DHT22;31507;51.494;7.518;2024-01-27T11:27:04;10.40;1.00
45807;DHT22;31507;51.494;7.518;2024-01-27T11:29:30;10.50;1.00
45807;DHT22;31507;51.494;7.518;2024-01-27T11:32:01;10.60;1.00
45807;DHT22;31507;51.494;7.518;2024-01-27T11:34:42;10.70;1.00
45807;DHT22;31507;51.494;7.518;2024-01-27T11:37:12;10.60;1.00
45807;DHT22;31507;51.494;7.518;2024-01-27T11:39:37;10.60;1.00
45807;DHT22;31507;51.494;7.518;2024-01-27T11:42:06;10.50;1.00
45807;DHT22;31507;51.494;7.518;2024-01-27T11:44:38;10.40;1.00
45807;DHT22;31507;51.494;7.518;2024-01-27T11:47:04;10.40;1.00
45807;DHT22;31507;51.494;7.518;2024-01-27T11:49:30;10.40;1.00
45807;DHT22;31507;51.494;7.518;2024-01-27T11:51:55;10.60;1.00
45807;DHT22;31507;51.494;7.518;2024-01-27T11:54:21;10.90;1.00
45807;DHT22;31507;51.494;7.518;2024-01-27T11:56:46;11.20;1.00
45807;DHT22;31507;51.494;7.518;2024-01-27T11:59:12;10.80;1.00
45807;DHT22;31507;51.494;7.518;2024-01-27T12:01:37;10.10;1.00
45807;DHT22;31507;51.494;7.518;2024-01-27T12:04:04;9.80;1.00
45807;DHT22;31507;51.494;7.518;2024-01-27T12:06:30;10.10;1.00
45807;DHT22;31507;51.494;7.518;2024-01-27T12:08:56;10.00;1.00
45807;DHT22;31507;51.494;7.518;2024-01-27T12:11:23;9.90;1.00
45807;DHT22;31507;51.494;7.518;2024-01-27T12:13:49;9.80;1.00
45807;DHT22;31507;51.494;7.518;2024-01-27T12:16:15;9.90;1.00
45807;DHT22;31507;51.494;7.518;2024-01-27T12:18:40;9.80;1.00
45807;DHT22;31507;51.494;7.518;2024-01-27T12:21:06;9.50;1.00
45807;DHT22;31507;51.494;7.518;2024-01-27T12:23:31;9.50;1.00
45807;DHT22;31507;51.494;7.518;2024-01-27T12:25:57;9.60;1.00
45807;DHT22;31507;51.494;7.518;2024-01-27T12:28:22;9.30;1.00
45807;DHT22;31507;51.494;7.518;2024-01-27T12:30:49;9.10;1.00
45807;DHT22;31507;51.494;7.518;2024-01-27T12:33:14;9.00;1.00
45807;DHT22;31507;51.494;7.518;2024-01-27T12:35:40;9.20;1.00
45807;DHT22;31507;51.494;7.518;2024-01-27T12:38:05;9.30;1.00
45807;DHT22;31507;51.494;7.518;2024-01-27T12:40:31;9.30;1.00
45807;DHT22;31507;51.494;7.518;2024-01-27T12:42:57;9.30;1.00
45807;DHT22;31507;51.494;7.518;2024-01-27T12:45:22;9.20;1.00
45807;DHT22;31507;51.494;7.518;2024-01-27T12:47:48;9.10;1.00
45807;DHT22;31507;51.494;7.518;2024-01-27T12:50:13;9.00;1.00
45807;DHT22;31507;51.494;7.518;2024-01-27T12:52:39;9.00;1.00
45807;DHT22;31507;51.494;7.518;2024-01-27T12:55:05;9.00;1.00
45807;DHT22;31507;51.494;7.518;2024-01-27T12:57:30;9.00;1.00
45807;DHT22;31507;51.494;7.518;2024-01-27T12:59:56;8.90;1.00
45807;DHT22;31507;51.494;7.518;2024-01-27T13:02:22;8.90;1.00
45807;DHT22;31507;51.494;7.518;2024-01-27T13:04:47;8.70;1.00
45807;DHT22;31507;51.494;7.518;2024-01-27T13:07:13;8.70;1.00
45807;DHT22;31507;51.494;7.518;2024-01-27T13:09:39;8.70;1.00
45807;DHT22;31507;51.494;7.518;2024-01-27T13:12:05;8.80;1.00
45807;DHT22;31507;51.494;7.518;2024-01-27T13:14:30;8.90;1.00
45807;DHT22;31507;51.494;7.518;2024-01-27T13:16:56;8.80;1.00
45807;DHT22;31507;51.494;7.518;2024-01-27T13:19:24;8.80;1.00
45807;DHT22;31507;51.494;7.518;2024-01-27T13:21:50;8.90;1.00
45807;DHT22;31507;51.494;7.518;2024-01-27T13:24:16;8.90;1.00
45807;DHT22;31507;51.494;7.518;2024-01-27T13:26:41;8.90;1.00
45807;DHT22;31507;51.494;7.518;2024-01-27T13:29:07;8.90;1.00
45807;DHT22;31507;51.494;7.518;2024-01-27T13:31:33;8.80;1.00
45807;DHT22;31507;51.494;7.518;2024-01-27T13:33:59;8.80;1.00
45807;DHT22;31507;51.494;7.518;2024-01-27T13:36:25;8.90;1.00
45807;DHT22;31507;51.494;7.518;2024-01-27T13:38:51;9.00;1.00
45807;DHT22;31507;51.494;7.518;2024-01-27T13:41:17;9.10;1.00
45807;DHT22;31507;51.494;7.518;2024-01-27T13:43:43;9.00;1.00
45807;DHT22;31507;51.494;7.518;2024-01-27T13:46:08;9.10;1.00
45807;DHT22;31507;51.494;7.518;2024-01-27T13:48:34;9.10;1.00
45807;DHT22;31507;51.494;7.518;2024-01-27T13:50:59;9.00;1.00
45807;DHT22;31507;51.494;7.518;2024-01-27T13:53:25;9.00;1.00
45807;DHT22;31507;51.494;7.518;2024-01-27T13:55:50;9.10;1.00
45807;DHT22;31507;51.494;7.518;2024-01-27T13:58:18;9.00;1.00
45807;DHT22;31507;51.494;7.518;2024-01-27T14:00:44;8.90;1.00
45807;DHT22;31507;51.494;7.518;2024-01-27T14:03:10;8.80;1.00
45807;DHT22;31507;51.494;7.518;2024-01-27T14:05:35;8.70;1.00
45807;DHT22;31507;51.494;7.518;2024-01-27T14:08:00;8.90;1.00
45807;DHT22;31507;51.494;7.518;2024-01-27T14:10:26;8.90;1.00
45807;DHT22;31507;51.494;7.518;2024-01-27T14:12:52;8.80;1.00
45807;DHT22;31507;51.494;7.518;2024-01-27T14:15:18;8.90;1.00
45807;DHT22;31507;51.494;7.518;2024-01-27T14:17:44;8.70;1.00
45807;DHT22;31507;51.494;7.518;2024-01-27T14:20:11;8.80;1.00
45807;DHT22;31507;51.494;7.518;2024-01-27T14:22:37;8.70;1.00
45807;DHT22;31507;51.494;7.518;2024-01-27T14:25:03;8.60;1.00
45807;DHT22;31507;51.494;7.518;2024-01-27T14:27:29;8.50;1.00
45807;DHT22;31507;51.494;7.518;2024-01-27T14:29:55;8.40;1.00
45807;DHT22;31507;51.494;7.518;2024-01-27T14:32:21;8.20;1.00
45807;DHT22;31507;51.494;7.518;2024-01-27T14:34:47;8.10;1.00
45807;DHT22;31507;51.494;7.518;2024-01-27T14:37:13;8.00;1.00
45807;DHT22;31507;51.494;7.518;2024-01-27T14:39:39;7.80;1.00
45807;DHT22;31507;51.494;7.518;2024-01-27T14:42:07;7.70;1.00
45807;DHT22;31507;51.494;7.518;2024-01-27T14:44:33;7.70;1.00
45807;DHT22;31507;51.494;7.518;2024-01-27T14:46:59;7.60;1.00
45807;DHT22;31507;51.494;7.518;2024-01-27T14:49:24;7.50;1.00
45807;DHT22;31507;51.494;7.518;2024-01-27T14:51:50;7.30;1.00
45807;DHT22;31507;51.494;7.518;2024-01-27T14:54:16;7.30;1.00
45807;DHT22;31507;51.494;7.518;2024-01-27T14:56:42;7.20;1.00
45807;DHT22;31507;51.494;7.518;2024-01-27T14:59:07;7.10;1.00
45807;DHT22;31507;51.494;7.518;2024-01-27T15:01:33;7.00;1.00
45807;DHT22;31507;51.494;7.518;2024-01-27T15:03:59;6.90;1.00
45807;DHT22;31507;51.494;7.518;2024-01-27T15:06:29;6.90;1.00
45807;DHT22;31507;51.494;7.518;2024-01-27T15:08:54;6.80;1.00
45807;DHT22;31507;51.494;7.518;2024-01-27T15:11:21;6.80;1.00
45807;DHT22;31507;51.494;7.518;2024-01-27T15:13:46;6.80;1.00
45807;DHT22;31507;51.494;7.518;2024-01-27T15:16:12;6.70;1.00
45807;DHT22;31507;51.494;7.518;2024-01-27T15:18:37;6.70;1.00
45807;DHT22;31507;51.494;7.518;2024-01-27T15:21:06;6.60;1.00
45807;DHT22;31507;51.494;7.518;2024-01-27T15:23:31;6.60;1.00
45807;DHT22;31507;51.494;7.518;2024-01-27T15:25:57;6.60;1.00
45807;DHT22;31507;51.494;7.518;2024-01-27T15:28:24;6.60;1.00
45807;DHT22;31507;51.494;7.518;2024-01-27T15:30:50;6.50;1.00
45807;DHT22;31507;51.494;7.518;2024-01-27T15:33:15;6.40;1.00
45807;DHT22;31507;51.494;7.518;2024-01-27T15:35:41;6.40;1.00
45807;DHT22;31507;51.494;7.518;2024-01-27T15:38:07;6.30;1.00
45807;DHT22;31507;51.494;7.518;2024-01-27T15:40:33;6.20;1.00
45807;DHT22;31507;51.494;7.518;2024-01-27T15:42:59;6.10;1.00